createdAt,value
2023-05-10T00:01:26.348Z,101551.63
2023-05-10T00:06:29.340Z,101567.22
2023-05-10T00:11:32.252Z,101543.25
2023-05-10T00:16:36.715Z,101543.25
2023-05-10T00:21:39.628Z,101544.41
2023-05-10T00:26:43.469Z,101543.53
2023-05-10T00:31:46.389Z,101538.69
2023-05-10T00:36:49.103Z,101542.72
2023-05-10T00:41:52.365Z,101549.59
2023-05-10T00:46:55.463Z,101566.34
2023-05-10T00:51:58.433Z,101564.16
2023-05-10T00:57:01.058Z,101568.56
2023-05-10T01:02:04.307Z,101564.16
2023-05-10T01:07:07.200Z,101557.31
2023-05-10T01:12:10.166Z,101560.81
2023-05-10T01:17:13.924Z,101555.44
2023-05-10T01:22:39.589Z,101560.94
2023-05-10T01:28:17.691Z,101562.44
2023-05-10T01:33:21.562Z,101562.78
2023-05-10T01:38:34.400Z,101555.00
2023-05-10T01:43:49.905Z,101552.63
2023-05-10T01:48:58.856Z,101548.91
2023-05-10T01:54:05.023Z,101556.88
2023-05-10T01:59:13.566Z,101557.88
2023-05-10T02:04:18.812Z,101549.16
2023-05-10T02:09:24.171Z,101566.31
2023-05-10T02:14:28.412Z,101569.84
2023-05-10T02:19:33.696Z,101554.00
2023-05-10T02:24:59.373Z,101537.81
2023-05-10T02:30:08.307Z,101529.81
2023-05-10T02:35:12.555Z,101522.66
2023-05-10T02:40:18.506Z,101523.19
2023-05-10T02:45:25.263Z,101497.28
2023-05-10T02:50:31.444Z,101523.81
2023-05-10T02:55:41.632Z,101525.16
2023-05-10T03:00:44.329Z,101518.63
2023-05-10T03:05:47.907Z,101524.00
2023-05-10T03:11:28.722Z,101522.31
2023-05-10T03:16:44.784Z,101528.00
2023-05-10T03:21:53.135Z,101532.97
2023-05-10T03:27:00.762Z,101528.44
2023-05-10T03:32:04.650Z,101517.06
2023-05-10T03:37:08.494Z,101541.50
2023-05-10T03:42:13.148Z,101530.56
2023-05-10T03:47:16.160Z,101520.75
2023-05-10T03:52:19.525Z,101522.78
2023-05-10T03:57:22.545Z,101518.81
2023-05-10T04:02:25.702Z,101518.91
2023-05-10T04:07:30.613Z,101515.88
2023-05-10T04:12:33.253Z,101513.41
2023-05-10T04:17:35.992Z,101518.84
2023-05-10T04:22:39.226Z,101515.88
2023-05-10T04:27:42.103Z,101503.81
2023-05-10T04:32:45.154Z,101520.00
2023-05-10T04:37:48.143Z,101546.31
2023-05-10T04:42:51.142Z,101555.75
2023-05-10T04:47:53.957Z,101535.94
2023-05-10T04:52:57.155Z,101509.25
2023-05-10T04:58:00.340Z,101515.03
2023-05-10T05:03:03.524Z,101529.19
2023-05-10T05:08:06.974Z,101528.59
2023-05-10T05:13:10.008Z,101507.69
2023-05-10T05:18:12.766Z,101514.69
2023-05-10T05:23:15.807Z,101519.94
2023-05-10T05:28:19.368Z,101509.94
2023-05-10T05:33:22.200Z,101509.22
2023-05-10T05:38:25.194Z,101514.28
2023-05-10T05:43:28.121Z,101518.13
2023-05-10T05:48:31.764Z,101517.22
2023-05-10T05:53:34.555Z,101522.50
2023-05-10T05:58:37.594Z,101513.94
2023-05-10T06:03:40.433Z,101510.84
2023-05-10T06:08:43.361Z,101535.84
2023-05-10T06:13:46.272Z,101522.56
2023-05-10T06:18:49.134Z,101524.41
2023-05-10T06:23:52.003Z,101536.16
2023-05-10T06:28:54.816Z,101521.81
2023-05-10T06:33:57.616Z,101507.84
2023-05-10T06:39:00.335Z,101506.66
2023-05-10T06:44:03.090Z,101518.00
2023-05-10T06:49:05.862Z,101505.13
2023-05-10T06:54:08.818Z,101529.94
2023-05-10T06:59:11.953Z,101540.13
2023-05-10T07:04:14.963Z,101546.31
2023-05-10T07:09:17.933Z,101538.31
2023-05-10T07:14:20.509Z,101544.63
2023-05-10T07:19:23.782Z,101539.72
2023-05-10T07:24:26.696Z,101530.09
2023-05-10T07:29:29.837Z,101538.91
2023-05-10T07:34:33.009Z,101535.94
2023-05-10T07:39:35.991Z,101531.63
2023-05-10T07:44:39.002Z,101531.97
2023-05-10T07:49:42.748Z,101519.34
2023-05-10T07:54:46.070Z,101507.56
2023-05-10T07:59:48.966Z,101511.31
2023-05-10T08:04:52.066Z,101510.59
2023-05-10T08:09:54.918Z,101515.59
2023-05-10T08:14:57.991Z,101518.78
2023-05-10T08:20:00.919Z,101516.72
2023-05-10T08:25:04.390Z,101505.06
2023-05-10T08:30:07.382Z,101486.44
2023-05-10T08:35:10.509Z,101479.84
2023-05-10T08:40:13.540Z,101482.09
2023-05-10T08:45:17.962Z,101470.84
2023-05-10T08:50:23.666Z,101465.84
2023-05-10T08:55:26.354Z,101466.91
2023-05-10T09:00:30.286Z,101460.00
2023-05-10T09:05:33.930Z,101455.94
2023-05-10T09:10:37.007Z,101432.59
2023-05-10T09:15:40.287Z,101442.75
2023-05-10T09:20:43.468Z,101423.81
2023-05-10T09:25:46.872Z,101427.22
2023-05-10T09:30:56.996Z,101424.44
2023-05-10T09:36:09.625Z,101424.44
2023-05-10T09:41:26.352Z,101417.44
2023-05-10T09:46:29.364Z,101421.00
2023-05-10T09:51:35.600Z,101428.75
2023-05-10T09:56:41.843Z,101423.84
2023-05-10T10:01:51.875Z,101432.56
2023-05-10T10:07:06.946Z,101429.53
2023-05-10T13:01:33.685Z,101348.53
2023-05-10T13:06:37.830Z,101347.81
2023-05-10T13:11:41.260Z,101341.09
2023-05-10T13:16:44.547Z,101357.06
2023-05-10T13:21:47.849Z,101354.97
2023-05-10T13:26:51.135Z,101344.41
2023-05-10T13:32:13.863Z,101348.91
2023-05-10T13:37:17.332Z,101358.28
2023-05-10T13:42:21.515Z,101344.38
2023-05-10T13:48:03.855Z,101350.09
2023-05-10T13:53:09.381Z,101355.00
2023-05-10T13:58:13.035Z,101349.59
2023-05-10T14:03:46.857Z,101348.91
2023-05-10T14:09:08.104Z,101356.22
2023-05-10T14:14:45.853Z,101372.34
2023-05-10T14:20:00.964Z,101351.91
2023-05-10T14:25:47.487Z,101353.28
2023-05-10T14:31:09.874Z,101352.88
2023-05-10T14:36:12.664Z,101335.44
2023-05-10T14:41:16.461Z,101348.63
2023-05-10T14:46:19.758Z,101356.78
2023-05-10T14:51:23.250Z,101359.56
2023-05-10T14:56:27.136Z,101363.13
2023-05-10T15:01:32.634Z,101345.69
2023-05-10T15:06:36.776Z,101379.22
2023-05-10T15:11:39.528Z,101378.19
2023-05-10T15:16:43.372Z,101385.69
2023-05-10T15:21:46.760Z,101373.19
2023-05-10T15:26:49.708Z,101368.84
2023-05-10T15:31:52.955Z,101369.84
2023-05-10T15:37:14.789Z,101365.44
2023-05-10T15:42:17.590Z,101364.81
2023-05-10T15:47:20.680Z,101362.31
2023-05-10T15:52:24.531Z,101367.25
2023-05-10T15:57:52.375Z,101370.94
2023-05-10T16:02:56.691Z,101369.41
2023-05-10T16:08:18.883Z,101368.38
2023-05-10T16:13:21.707Z,101370.19
2023-05-10T16:18:25.206Z,101380.56
2023-05-10T16:23:37.709Z,101377.03
2023-05-10T16:29:04.099Z,101387.97
2023-05-10T16:34:52.714Z,101396.25
2023-05-10T16:40:17.871Z,101396.03
2023-05-10T16:45:25.325Z,101388.88
2023-05-10T16:50:29.144Z,101393.63
2023-05-10T16:55:31.875Z,101397.38
2023-05-10T17:00:35.058Z,101400.91
2023-05-10T17:05:38.203Z,101400.09
2023-05-10T17:10:59.155Z,101428.50
2023-05-10T17:16:21.170Z,101438.00
2023-05-10T17:21:23.747Z,101437.72
2023-05-10T17:26:45.566Z,101442.09
2023-05-10T17:32:09.560Z,101442.84
2023-05-10T17:37:12.698Z,101448.03
2023-05-10T17:42:17.892Z,101440.75
2023-05-10T17:47:20.946Z,101438.69
2023-05-10T17:52:23.718Z,101431.78
2023-05-10T17:57:26.453Z,101421.75
2023-05-10T18:02:29.791Z,101430.47
2023-05-10T18:07:32.775Z,101435.78
2023-05-10T18:12:36.786Z,101428.22
2023-05-10T18:17:39.579Z,101441.44
2023-05-10T18:22:44.518Z,101460.50
2023-05-10T18:27:48.719Z,101446.94
2023-05-10T18:32:52.980Z,101446.22
2023-05-10T18:37:56.469Z,101442.63
2023-05-10T18:43:00.642Z,101443.03
2023-05-10T18:48:04.015Z,101440.25
2023-05-10T18:53:06.902Z,101428.38
2023-05-10T18:58:09.635Z,101416.50
2023-05-10T19:03:12.516Z,101432.59
2023-05-10T19:08:16.364Z,101444.75
2023-05-10T19:13:19.174Z,101440.97
2023-05-10T19:18:21.835Z,101419.53
2023-05-10T19:23:29.218Z,101413.13
2023-05-10T19:28:32.328Z,101406.44
2023-05-10T19:33:36.005Z,101409.06
2023-05-10T19:38:39.232Z,101403.22
2023-05-10T19:43:42.119Z,101392.16
2023-05-10T19:48:46.658Z,101385.22
2023-05-10T19:53:49.556Z,101356.38
2023-05-10T19:58:52.376Z,101365.75
2023-05-10T20:03:55.962Z,101377.72
2023-05-10T20:08:58.572Z,101398.66
2023-05-10T20:14:01.972Z,101389.97
2023-05-10T20:19:04.977Z,101381.59
2023-05-10T20:24:09.254Z,101370.91
2023-05-10T20:29:13.468Z,101373.25
2023-05-10T20:34:16.352Z,101371.56
2023-05-10T20:39:19.054Z,101360.81
2023-05-10T20:44:21.748Z,101355.16
2023-05-10T20:49:24.642Z,101363.66
2023-05-10T20:54:27.477Z,101369.72
2023-05-10T20:59:30.751Z,101353.47
2023-05-10T21:04:33.330Z,101353.09
2023-05-10T21:09:36.129Z,101358.47
2023-05-10T21:14:38.826Z,101370.56
2023-05-10T21:19:41.898Z,101371.56
2023-05-10T21:24:44.411Z,101359.97
2023-05-10T21:29:47.052Z,101345.41
2023-05-10T21:34:49.641Z,101335.59
2023-05-10T21:39:53.185Z,101342.25
2023-05-10T21:44:55.939Z,101328.53
2023-05-10T21:49:58.508Z,101306.00
2023-05-10T21:55:01.293Z,101294.13
2023-05-10T22:00:05.186Z,101303.84
2023-05-10T22:05:09.567Z,101307.66
2023-05-10T22:10:12.769Z,101324.81
2023-05-10T22:15:15.650Z,101301.91
2023-05-10T22:20:18.543Z,101302.38
2023-05-10T22:25:21.528Z,101322.69
2023-05-10T22:30:24.333Z,101311.09
2023-05-10T22:35:27.232Z,101308.16
2023-05-10T22:40:30.207Z,101323.63
2023-05-10T22:45:32.937Z,101315.00
2023-05-10T22:50:37.264Z,101298.56
2023-05-10T22:55:40.039Z,101325.03
2023-05-10T23:00:42.725Z,101304.34
2023-05-10T23:05:45.268Z,101301.47
2023-05-10T23:10:47.935Z,101318.81
2023-05-10T23:15:51.079Z,101307.22
2023-05-10T23:20:54.031Z,101309.91
2023-05-10T23:25:56.982Z,101307.78
2023-05-10T23:30:59.803Z,101319.66
2023-05-10T23:36:02.761Z,101289.31
2023-05-10T23:41:05.766Z,101305.25
2023-05-10T23:46:08.440Z,101288.59
2023-05-10T23:51:11.661Z,101299.97
2023-05-10T23:56:14.331Z,101296.47
